M I D A S
Marine Information and Data Acquisition System
Tripno 393 of the Zeeleeuw from 2002-11-12 07:59:55 to 2002-11-12 11:26:10
Back to CruiseResearch ActivitiesStationsMapUnderway DataData graphs

EquipmentUnitsComment
TimeDGPSUTC
LatitudeDGPSDM.mWGS84
LongitudeDGPSDM.mWGS84
HeadingGyrodeg 
SOGDGPSknotsSpeed over ground
COGDGPSdegCourse over ground
DepthEcho soundermeters200 kHz
Missing or incorrect values are displayed as -999
Navigation data collected by the RV Zeeleeuw from 2002-11-12 07:59:55 to 2002-11-12 11:26:10
                                                                                    Next 1000 lines
Time Latitude Longitude Heading SOG COG Depth
2002-11-12 08:00:03 51°13.767 2°55.698 199.2 4 323.9 11.1
2002-11-12 08:00:09 51°13.773 2°55.691 199.2 4.2 323.7 11.2
2002-11-12 08:00:13 51°13.777 2°55.686 199.7 4.4 324 11.2
2002-11-12 08:00:18 51°13.782 2°55.681 200.5 4.5 324.3 11.3
2002-11-12 08:00:23 51°13.788 2°55.675 202 4.6 325.6 11.3
2002-11-12 08:00:29 51°13.795 2°55.668 203 4.7 326.4 11.6
2002-11-12 08:00:33 51°13.799 2°55.664 203.5 4.9 327.6 11.8
2002-11-12 08:00:39 51°13.806 2°55.657 203.7 5 328.7 11.7
2002-11-12 08:00:43 51°13.812 2°55.653 203.7 5.1 329.5 11.9
2002-11-12 08:00:49 51°13.819 2°55.646 203.8 5.1 329.9 12
2002-11-12 08:00:54 51°13.826 2°55.64 204 5.3 331 12.3
2002-11-12 08:00:59 51°13.832 2°55.634 204.2 5.3 331.1 12.1
2002-11-12 08:01:03 51°13.838 2°55.63 204.3 5.4 331.1 12
2002-11-12 08:01:09 51°13.846 2°55.623 204.7 5.5 331.9 12.2
2002-11-12 08:01:14 51°13.853 2°55.617 205.2 5.6 332.3 12
2002-11-12 08:01:19 51°13.86 2°55.611 205.5 5.7 332.5 12.2
2002-11-12 08:01:23 51°13.866 2°55.607 206 5.7 332.8 12
2002-11-12 08:01:29 51°13.874 2°55.6 206.7 5.7 333.3 12.1
2002-11-12 08:01:34 51°13.882 2°55.595 207.7 5.8 334 12.1
2002-11-12 08:01:39 51°13.889 2°55.589 208 5.8 335.1 11.8
2002-11-12 08:01:43 51°13.895 2°55.585 208.3 6 335.5 11.9
2002-11-12 08:01:49 51°13.905 2°55.578 208.2 6.1 335.6 11.6
2002-11-12 08:01:53 51°13.911 2°55.573 208.2 6.4 335.6 11.4
2002-11-12 08:01:59 51°13.921 2°55.566 208.5 6.5 335.8 11.3
2002-11-12 08:02:03 51°13.928 2°55.561 208.7 6.7 335.8 11.2
2002-11-12 08:02:07 51°13.935 2°55.556 208.8 6.8 335.7 11.3
2002-11-12 08:02:13 51°13.945 2°55.548 208.7 6.9 335.5 11.2
2002-11-12 08:02:19 51°13.956 2°55.54 208.3 7 335.1 11.3
2002-11-12 08:02:23 51°13.963 2°55.535 208.2 7.1 335.4 11.6
2002-11-12 08:02:29 51°13.974 2°55.527 209 7.2 335.3 11.2
2002-11-12 08:02:31 51°13.978 2°55.524 210.2 7.3 336.6 11.3
2002-11-12 08:02:39 51°13.993 2°55.514 209.8 7.3 336.9 11.2
2002-11-12 08:02:43 51°14 2°55.508 209 7.4 336.7 11
2002-11-12 08:02:49 51°14.011 2°55.5 208.2 7.5 335.5 10.9
2002-11-12 08:02:53 51°14.019 2°55.494 207.5 7.5 334.7 11.2
2002-11-12 08:02:59 51°14.03 2°55.485 207.5 7.5 334.1 11.1
2002-11-12 08:03:03 51°14.038 2°55.479 207.8 7.5 334.1 11.1
2002-11-12 08:03:09 51°14.049 2°55.47 208 7.6 334.1 11.1
2002-11-12 08:03:13 51°14.056 2°55.464 208.3 7.6 334.6 11.1
2002-11-12 08:03:19 51°14.068 2°55.456 208.3 7.6 334.4 10.7
2002-11-12 08:03:23 51°14.076 2°55.45 208.8 7.6 334.4 10.9
2002-11-12 08:03:29 51°14.087 2°55.441 209 7.7 334.4 11.1
2002-11-12 08:03:34 51°14.096 2°55.433 209 7.7 334.2 11.1
2002-11-12 08:03:39 51°14.106 2°55.426 209.3 7.7 334.2 11
2002-11-12 08:03:43 51°14.114 2°55.42 209.5 7.7 334.5 10.7
2002-11-12 08:03:47 51°14.121 2°55.414 209.2 7.7 334.4 10.8
2002-11-12 08:03:54 51°14.135 2°55.404 208.5 7.7 334.2 11.2
2002-11-12 08:03:59 51°14.144 2°55.396 207.3 7.7 333.5 11.2
2002-11-12 08:04:03 51°14.152 2°55.389 205.8 7.8 332.5 11
2002-11-12 08:04:08 51°14.161 2°55.381 204.3 7.8 331.8 11.2
2002-11-12 08:04:13 51°14.171 2°55.372 203.2 7.8 329.7 11.3
2002-11-12 08:04:18 51°14.18 2°55.362 201.8 7.8 328.6 11.1
2002-11-12 08:04:23 51°14.189 2°55.353 200.7 7.8 327 11.3
2002-11-12 08:04:29 51°14.199 2°55.341 199 7.8 326.1 11.3
2002-11-12 08:04:34 51°14.208 2°55.331 197.2 7.8 323.8 11.3
2002-11-12 08:04:39 51°14.216 2°55.319 195.2 7.8 322.2 11.3
2002-11-12 08:04:43 51°14.223 2°55.311 193.3 7.8 320 11.3
2002-11-12 08:04:47 51°14.229 2°55.301 191.8 7.8 318.7 11.3
2002-11-12 08:04:53 51°14.239 2°55.287 191 7.9 318 11.3
2002-11-12 08:04:58 51°14.247 2°55.275 190.3 7.9 317.3 11.3
2002-11-12 08:05:03 51°14.254 2°55.263 189.3 7.9 316.1 11.2
2002-11-12 08:05:09 51°14.263 2°55.248 187.8 7.9 314.9 11.2
2002-11-12 08:05:14 51°14.271 2°55.235 186.3 7.9 313 11.3
2002-11-12 08:05:19 51°14.278 2°55.222 185.7 7.9 311.7 11.2
2002-11-12 08:05:23 51°14.283 2°55.211 185.3 7.9 310.7 11.3
2002-11-12 08:05:29 51°14.292 2°55.195 185.3 7.9 310.5 11.3
2002-11-12 08:05:34 51°14.299 2°55.182 185 8 310.1 11.3
2002-11-12 08:05:38 51°14.305 2°55.171 185.2 8 309.8 11.3
2002-11-12 08:05:43 51°14.312 2°55.157 184.7 8 309.8 11.3
2002-11-12 08:05:49 51°14.32 2°55.141 183.8 8 309.5 11.3
2002-11-12 08:05:54 51°14.327 2°55.127 183 8 309 11.3
2002-11-12 08:05:59 51°14.334 2°55.112 182.8 8.1 308.6 11.2
2002-11-12 08:06:03 51°14.34 2°55.1 183 8.4 308.3 11.2
2002-11-12 08:06:07 51°14.345 2°55.088 182.7 8.7 308.2 11.6
2002-11-12 08:06:14 51°14.356 2°55.065 182 9 307.3 11.9
2002-11-12 08:06:19 51°14.364 2°55.048 181.5 9.3 306.4 11.6
2002-11-12 08:06:23 51°14.37 2°55.034 181 9.4 306 11.7
2002-11-12 08:06:27 51°14.376 2°55.02 180.3 9.6 305.6 11.3
2002-11-12 08:06:33 51°14.385 2°54.999 178 9.7 304.9 11.4
2002-11-12 08:06:39 51°14.394 2°54.977 175.3 9.8 303.6 11.6
2002-11-12 08:06:43 51°14.4 2°54.962 171.8 9.9 301.1 11.4
2002-11-12 08:06:49 51°14.406 2°54.938 168 9.9 298.6 11.5
2002-11-12 08:06:54 51°14.411 2°54.917 164 9.9 294.5 11.4
2002-11-12 08:06:59 51°14.416 2°54.896 160.2 9.9 290.9 11.7
2002-11-12 08:07:03 51°14.418 2°54.879 156.2 10 288.5 11.8
2002-11-12 08:07:09 51°14.422 2°54.852 153.5 10.3 283.3 11.5
2002-11-12 08:07:14 51°14.424 2°54.829 150.7 10.4 280.5 11.3
2002-11-12 08:07:19 51°14.425 2°54.805 147.7 10.5 278.3 11.6
2002-11-12 08:07:23 51°14.425 2°54.786 144.7 10.7 274.8 11.2
2002-11-12 08:07:27 51°14.426 2°54.767 142.7 10.7 273.8 11.3
2002-11-12 08:07:33 51°14.426 2°54.738 142 10.8 271.5 11.3
2002-11-12 08:07:39 51°14.426 2°54.709 141.2 11 270.7 11.9
2002-11-12 08:07:43 51°14.426 2°54.69 140.8 11 270.4 11.8
2002-11-12 08:07:47 51°14.426 2°54.67 139.8 11 270 11.3
2002-11-12 08:07:53 51°14.425 2°54.641 139 11 268.9 12
2002-11-12 08:07:59 51°14.424 2°54.612 138 11 267.8 11.9
2002-11-12 08:08:03 51°14.423 2°54.593 135.2 10.9 266.1 11.8
2002-11-12 08:08:07 51°14.421 2°54.574 130.7 10.8 262.1 11.7
2002-11-12 08:08:13 51°14.416 2°54.546 126.3 10.7 258 11.9
2002-11-12 08:08:18 51°14.412 2°54.525 122.5 10.6 253.3 11.6
2002-11-12 08:08:23 51°14.406 2°54.503 119.7 10.5 250.2 11.7
2002-11-12 08:08:29 51°14.399 2°54.477 117.5 10.5 247.4 10.8
2002-11-12 08:08:34 51°14.392 2°54.456 116.3 10.5 245.4 10.7
2002-11-12 08:08:39 51°14.386 2°54.435 115.8 10.6 243.9 10.6
2002-11-12 08:08:43 51°14.381 2°54.419 115.8 10.5 243.7 10.6
2002-11-12 08:08:49 51°14.373 2°54.393 115.7 10.5 243.5 10.6
2002-11-12 08:08:54 51°14.366 2°54.373 115.2 10.6 243.4 10.5
2002-11-12 08:08:59 51°14.36 2°54.352 115 10.6 242.9 10.5
2002-11-12 08:09:03 51°14.354 2°54.335 114.8 10.6 243.1 10.5
2002-11-12 08:09:09 51°14.346 2°54.311 114.7 10.6 242.8 10.4
2002-11-12 08:09:14 51°14.339 2°54.29 114.7 10.6 242.8 10.3
2002-11-12 08:09:19 51°14.333 2°54.269 114.7 10.6 242.5 10.4
2002-11-12 08:09:23 51°14.327 2°54.252 114.8 10.7 243 10.4
2002-11-12 08:09:29 51°14.319 2°54.227 114.8 10.7 242.7 10.4
2002-11-12 08:09:33 51°14.313 2°54.21 115.3 10.7 242.7 10.4
2002-11-12 08:09:39 51°14.305 2°54.185 114.7 10.7 242.6 10.4
2002-11-12 08:09:43 51°14.3 2°54.168 114.7 10.7 242.4 10.3
2002-11-12 08:09:49 51°14.292 2°54.143 114.7 10.6 243.1 10.3
2002-11-12 08:09:54 51°14.285 2°54.122 114.7 10.6 242.8 10.3
2002-11-12 08:09:58 51°14.279 2°54.105 114.8 10.6 242.8 10.3
2002-11-12 08:10:03 51°14.272 2°54.084 114.8 10.8 242 10.3
2002-11-12 08:10:09 51°14.264 2°54.059 115.2 10.8 242.3 10.2
2002-11-12 08:10:13 51°14.258 2°54.043 115 10.7 242.3 10.2
2002-11-12 08:10:18 51°14.252 2°54.021 115 10.7 242.6 10.2
2002-11-12 08:10:23 51°14.245 2°54.001 114.7 10.7 242.3 10.2
2002-11-12 08:10:27 51°14.239 2°53.984 114.7 10.7 242.3 10.2
2002-11-12 08:10:34 51°14.229 2°53.954 114.7 10.7 242.2 10.2
2002-11-12 08:10:39 51°14.223 2°53.933 115 10.7 242.2 10.2
2002-11-12 08:10:43 51°14.217 2°53.916 115 10.8 242.4 10.3
2002-11-12 08:10:49 51°14.209 2°53.891 115.3 10.7 242.6 10.3
2002-11-12 08:10:53 51°14.204 2°53.874 115.5 10.7 243 10.3
2002-11-12 08:10:59 51°14.196 2°53.848 115 10.8 243 10.3
2002-11-12 08:11:03 51°14.19 2°53.831 115.3 10.8 243.1 10.3
2002-11-12 08:11:09 51°14.183 2°53.806 115.3 10.7 243.5 10.3
2002-11-12 08:11:13 51°14.178 2°53.789 115.8 10.7 243.9 10.3
2002-11-12 08:11:19 51°14.169 2°53.763 115.5 10.6 244 10.2
2002-11-12 08:11:23 51°14.164 2°53.746 115.3 10.7 243.3 10.4
2002-11-12 08:11:29 51°14.156 2°53.721 115.3 10.7 243.1 10.4
2002-11-12 08:11:33 51°14.15 2°53.704 115 10.8 243 10.4
2002-11-12 08:11:39 51°14.142 2°53.679 115 10.7 243 10.4
2002-11-12 08:11:43 51°14.137 2°53.661 114.7 10.8 242.9 10.4
2002-11-12 08:11:49 51°14.128 2°53.636 114.7 10.8 242.7 10.5
2002-11-12 08:11:53 51°14.123 2°53.619 115.2 10.8 242.7 10.5
2002-11-12 08:11:58 51°14.116 2°53.598 115.2 10.7 243 10.5
2002-11-12 08:12:03 51°14.109 2°53.577 115.2 10.7 243.2 10.5
2002-11-12 08:12:09 51°14.101 2°53.552 115.3 10.7 243 10.5
2002-11-12 08:12:14 51°14.095 2°53.531 115.2 10.7 243.2 10.5
2002-11-12 08:12:19 51°14.088 2°53.509 115.2 10.7 243.2 10.5
2002-11-12 08:12:23 51°14.082 2°53.493 115.2 10.8 243.1 10.6
2002-11-12 08:12:29 51°14.074 2°53.467 115.5 10.8 243.1 10.6
2002-11-12 08:12:34 51°14.067 2°53.446 115.2 10.8 243.1 10.6
2002-11-12 08:12:39 51°14.061 2°53.425 115.5 10.7 243.1 10.6
2002-11-12 08:12:43 51°14.055 2°53.408 115.3 10.8 243.1 10.7
2002-11-12 08:12:48 51°14.049 2°53.387 115.3 10.8 243 10.6
2002-11-12 08:12:53 51°14.042 2°53.366 116 10.8 243.3 10.6
2002-11-12 08:12:59 51°14.034 2°53.34 117.2 10.8 243.6 10.7
2002-11-12 08:13:03 51°14.03 2°53.322 117.7 10.8 245.2 10.7
2002-11-12 08:13:09 51°14.022 2°53.296 118 10.8 245.1 10.7
2002-11-12 08:13:14 51°14.017 2°53.275 118.5 10.8 246 10.8
2002-11-12 08:13:19 51°14.01 2°53.253 118.3 10.8 245.9 10.8
2002-11-12 08:13:23 51°14.005 2°53.236 118.3 10.8 246.1 10.9
2002-11-12 08:13:29 51°13.998 2°53.209 118.3 10.8 246.1 10.9
2002-11-12 08:13:34 51°13.992 2°53.188 118.5 10.8 246.2 11
2002-11-12 08:13:39 51°13.986 2°53.166 118.7 10.8 246.3 11
2002-11-12 08:13:43 51°13.981 2°53.148 118.8 10.9 246.2 11
2002-11-12 08:13:49 51°13.974 2°53.122 118.7 10.9 246.4 11.1
2002-11-12 08:13:53 51°13.969 2°53.104 118.5 10.9 246.4 11.1
2002-11-12 08:13:59 51°13.962 2°53.078 118.3 10.8 246.2 11.1
2002-11-12 08:14:03 51°13.957 2°53.06 118.5 10.8 246.7 11.2
2002-11-12 08:14:09 51°13.95 2°53.034 118.3 10.8 246.6 11.2
2002-11-12 08:14:14 51°13.944 2°53.012 118.3 10.8 246.3 11.2
2002-11-12 08:14:19 51°13.938 2°52.99 118.3 10.8 246.2 11.2
2002-11-12 08:14:23 51°13.933 2°52.972 117.8 10.8 246.3 11.3
2002-11-12 08:14:27 51°13.928 2°52.955 117.3 10.8 245.5 11.3
2002-11-12 08:14:34 51°13.919 2°52.925 117.5 10.8 245.2 11.3
2002-11-12 08:14:39 51°13.913 2°52.903 116.7 10.8 244.8 11.3
2002-11-12 08:14:43 51°13.908 2°52.886 116.8 10.8 244.8 11.3
2002-11-12 08:14:47 51°13.902 2°52.869 116.7 10.8 244.5 11.4
2002-11-12 08:14:53 51°13.894 2°52.843 116.3 10.8 244.4 11.4
2002-11-12 08:14:59 51°13.887 2°52.817 116.3 10.8 244.1 11.4
2002-11-12 08:15:03 51°13.881 2°52.8 116.5 10.8 244.1 11.4
2002-11-12 08:15:09 51°13.874 2°52.774 116.3 10.8 244.1 11.4
2002-11-12 08:15:14 51°13.867 2°52.752 116.5 10.8 244.5 11.4
2002-11-12 08:15:19 51°13.86 2°52.731 116.7 10.8 244.5 11.4
2002-11-12 08:15:23 51°13.855 2°52.714 116.7 10.8 244.4 11.4
2002-11-12 08:15:29 51°13.847 2°52.688 116.5 10.9 244 11.5
2002-11-12 08:15:34 51°13.841 2°52.666 116.5 10.9 244.1 11.5
2002-11-12 08:15:39 51°13.834 2°52.645 116.2 10.9 243.8 11.5
2002-11-12 08:15:43 51°13.829 2°52.627 116.2 10.9 243.8 11.5
2002-11-12 08:15:49 51°13.821 2°52.602 116.2 10.9 243.9 11.5
2002-11-12 08:15:54 51°13.815 2°52.58 116.3 10.8 243.9 11.5
2002-11-12 08:15:59 51°13.808 2°52.559 116.2 10.8 244.4 11.5
2002-11-12 08:16:03 51°13.803 2°52.542 115.8 10.8 243.7 11.5
2002-11-12 08:16:09 51°13.795 2°52.516 116 10.9 243.6 11.6
2002-11-12 08:16:14 51°13.788 2°52.494 116 10.9 243.7 11.6
2002-11-12 08:16:19 51°13.782 2°52.472 116.7 10.9 244 11.6
2002-11-12 08:16:23 51°13.776 2°52.455 116.5 10.9 244.2 11.6
2002-11-12 08:16:29 51°13.769 2°52.429 116.7 10.9 244.2 11.6
2002-11-12 08:16:34 51°13.762 2°52.408 116.3 10.9 244.2 11.6
2002-11-12 08:16:39 51°13.756 2°52.386 116 10.8 244.3 11.6
2002-11-12 08:16:43 51°13.75 2°52.369 116.2 10.9 244 11.6
2002-11-12 08:16:49 51°13.743 2°52.343 116.3 10.9 243.7 11.6
2002-11-12 08:16:53 51°13.737 2°52.325 116.5 10.9 243.8 11.6
2002-11-12 08:16:59 51°13.729 2°52.299 116.5 10.9 243.9 11.7
2002-11-12 08:17:03 51°13.724 2°52.282 116.5 10.9 243.9 11.7
2002-11-12 08:17:07 51°13.719 2°52.264 116.7 11 243.9 11.8
2002-11-12 08:17:13 51°13.711 2°52.238 116.5 11 243.8 11.7
2002-11-12 08:17:19 51°13.703 2°52.212 116.8 11 243.8 11.7
2002-11-12 08:17:23 51°13.697 2°52.195 116.8 11 244.1 11.8
2002-11-12 08:17:29 51°13.69 2°52.169 117 11 244.4 11.8
2002-11-12 08:17:33 51°13.684 2°52.152 116.8 11 244.3 11.8
2002-11-12 08:17:39 51°13.676 2°52.126 116.7 10.9 244.2 11.7
2002-11-12 08:17:43 51°13.671 2°52.108 116.3 10.9 243.8 11.8
2002-11-12 08:17:49 51°13.663 2°52.082 116 10.9 243.8 11.8
2002-11-12 08:17:54 51°13.656 2°52.061 116 10.9 243.2 11.8
2002-11-12 08:17:59 51°13.65 2°52.039 116.5 10.9 243.8 11.8
2002-11-12 08:18:03 51°13.644 2°52.022 116.3 10.9 244 11.8
2002-11-12 08:18:09 51°13.636 2°51.996 116.5 10.9 244.2 11.8
2002-11-12 08:18:13 51°13.631 2°51.978 116.3 10.9 244.1 11.8
2002-11-12 08:18:19 51°13.623 2°51.952 116.3 10.9 244 11.8
2002-11-12 08:18:23 51°13.617 2°51.935 116 10.9 243.8 11.7
2002-11-12 08:18:29 51°13.609 2°51.909 116.3 10.9 243.7 11.7
2002-11-12 08:18:34 51°13.603 2°51.887 116.7 10.9 244.3 11.8
2002-11-12 08:18:39 51°13.596 2°51.866 116.7 10.9 244.1 11.8
2002-11-12 08:18:43 51°13.591 2°51.848 116.8 11 244.2 11.7
2002-11-12 08:18:49 51°13.583 2°51.822 116.7 11 244 11.7
2002-11-12 08:18:53 51°13.578 2°51.805 116.7 11 244 11.7
2002-11-12 08:18:59 51°13.569 2°51.779 116.5 10.9 243.8 11.8
2002-11-12 08:19:03 51°13.564 2°51.762 116.3 10.9 243.7 11.8
2002-11-12 08:19:08 51°13.557 2°51.74 116.7 11 243.6 11.8
2002-11-12 08:19:11 51°13.554 2°51.727 116.8 10.9 243.9 11.9
2002-11-12 08:19:19 51°13.543 2°51.693 116.8 10.9 244.1 11.8
2002-11-12 08:19:23 51°13.538 2°51.675 117 10.9 244.3 11.8
2002-11-12 08:19:29 51°13.53 2°51.65 116.5 10.9 243.8 11.9
2002-11-12 08:19:34 51°13.523 2°51.628 116.5 10.9 243.7 12
2002-11-12 08:19:39 51°13.516 2°51.606 116.3 10.9 243.5 12
2002-11-12 08:19:43 51°13.511 2°51.589 116.5 11 243.3 12
2002-11-12 08:19:49 51°13.503 2°51.563 116.5 10.9 243.4 12
2002-11-12 08:19:54 51°13.496 2°51.541 116.5 10.9 243.6 12
2002-11-12 08:19:59 51°13.49 2°51.519 117 10.9 243.9 12
2002-11-12 08:20:03 51°13.484 2°51.502 117 10.9 244.3 12
2002-11-12 08:20:09 51°13.476 2°51.476 116.8 10.9 244.2 12.1
2002-11-12 08:20:13 51°13.471 2°51.459 116.7 10.9 243.9 12.1
2002-11-12 08:20:19 51°13.463 2°51.433 116.2 10.8 243.9 12
2002-11-12 08:20:23 51°13.457 2°51.416 116.3 10.8 243.7 12
2002-11-12 08:20:29 51°13.449 2°51.39 116.2 10.8 243.7 12.1
2002-11-12 08:20:33 51°13.443 2°51.372 116.2 10.9 243.2 12.1
2002-11-12 08:20:39 51°13.435 2°51.346 116.5 10.9 243.3 12.1
2002-11-12 08:20:43 51°13.429 2°51.329 116.5 10.9 243.2 12.1
2002-11-12 08:20:48 51°13.423 2°51.308 116.8 10.9 243.3 12.1
2002-11-12 08:20:54 51°13.415 2°51.282 117.2 10.8 243.9 12.1
2002-11-12 08:20:58 51°13.41 2°51.264 117.2 10.9 244.2 12.1
2002-11-12 08:21:03 51°13.403 2°51.243 117 10.9 244.5 12.1
2002-11-12 08:21:07 51°13.398 2°51.226 117 10.8 244.7 12.1
2002-11-12 08:21:14 51°13.389 2°51.196 116.5 10.8 244.1 12.1
2002-11-12 08:21:19 51°13.382 2°51.174 116.5 10.7 243.9 12.1
2002-11-12 08:21:23 51°13.377 2°51.158 116 10.7 243.5 12.1
2002-11-12 08:21:27 51°13.371 2°51.141 116.2 10.7 242.9 12.2
2002-11-12 08:21:34 51°13.362 2°51.112 116.3 10.8 242.8 12.2
2002-11-12 08:21:39 51°13.356 2°51.091 116 10.7 242.9 12.1
2002-11-12 08:21:43 51°13.35 2°51.073 116.3 10.7 243.1 12.2
2002-11-12 08:21:49 51°13.342 2°51.048 116.2 10.8 243.4 12.2
2002-11-12 08:21:54 51°13.335 2°51.027 116 10.8 243 12.2
2002-11-12 08:21:59 51°13.328 2°51.006 116 10.8 242.8 12.2
2002-11-12 08:22:03 51°13.323 2°50.989 116.3 10.9 242.8 12.2
2002-11-12 08:22:09 51°13.315 2°50.963 116.5 10.9 243.3 12.2
2002-11-12 08:22:13 51°13.31 2°50.947 116.5 10.8 243 12.2
2002-11-12 08:22:19 51°13.302 2°50.921 116.3 10.8 243.3 12.2
2002-11-12 08:22:23 51°13.296 2°50.904 116.5 10.7 243 12.2
2002-11-12 08:22:29 51°13.288 2°50.879 116.7 10.8 243.2 12.2
2002-11-12 08:22:34 51°13.281 2°50.858 116.5 10.8 243.3 12.2
2002-11-12 08:22:39 51°13.275 2°50.836 116.5 10.8 243.1 12.2
2002-11-12 08:22:43 51°13.269 2°50.819 116.5 10.8 243.2 12.2
2002-11-12 08:22:47 51°13.264 2°50.802 116.7 10.8 243 12.2
2002-11-12 08:22:53 51°13.256 2°50.777 116.7 10.8 242.8 12.2
2002-11-12 08:22:59 51°13.248 2°50.752 116.3 10.8 243 12.3
2002-11-12 08:23:03 51°13.242 2°50.735 116.7 10.8 243.1 12.3
2002-11-12 08:23:09 51°13.234 2°50.709 116.8 10.8 243.5 12.3
2002-11-12 08:23:14 51°13.228 2°50.687 116.7 10.9 244 12.3
2002-11-12 08:23:19 51°13.221 2°50.665 117 10.9 243.8 12.3
2002-11-12 08:23:23 51°13.216 2°50.648 117 10.9 244 12.3
2002-11-12 08:23:29 51°13.208 2°50.622 116.7 10.9 243.8 12.3
2002-11-12 08:23:34 51°13.202 2°50.601 116.8 10.9 243.7 12.3
2002-11-12 08:23:39 51°13.195 2°50.58 116.3 10.9 243.6 12.3
2002-11-12 08:23:43 51°13.19 2°50.562 116.3 10.8 243.6 12.3
2002-11-12 08:23:49 51°13.182 2°50.537 116.3 10.8 243.9 12.3
2002-11-12 08:23:53 51°13.176 2°50.52 116.7 10.8 244 12.3
2002-11-12 08:23:59 51°13.168 2°50.494 116.5 10.8 244.2 12.3
2002-11-12 08:24:02 51°13.164 2°50.481 116.5 10.8 243.7 12.4
2002-11-12 08:24:07 51°13.157 2°50.459 116.2 10.8 243.4 12.3
2002-11-12 08:24:14 51°13.148 2°50.43 116.2 10.8 243 12.3
2002-11-12 08:24:19 51°13.141 2°50.408 116.2 10.8 243.2 12.4
2002-11-12 08:24:23 51°13.135 2°50.391 116 10.8 243 12.4
2002-11-12 08:24:29 51°13.127 2°50.365 116.2 10.8 243.3 12.4
2002-11-12 08:24:34 51°13.12 2°50.344 116.3 10.8 243.5 12.4
2002-11-12 08:24:39 51°13.114 2°50.322 116.5 10.8 243.7 12.4
2002-11-12 08:24:43 51°13.109 2°50.306 116.2 10.8 244 12.4
2002-11-12 08:24:49 51°13.101 2°50.28 115.7 10.8 243.7 12.4
2002-11-12 08:24:54 51°13.094 2°50.259 114.8 10.8 243 12.4
2002-11-12 08:24:59 51°13.087 2°50.238 114.7 10.8 242.5 12.4
2002-11-12 08:25:03 51°13.081 2°50.221 114.3 10.8 241.9 12.4
2002-11-12 08:25:09 51°13.072 2°50.196 114 10.8 241.4 12.4
2002-11-12 08:25:13 51°13.067 2°50.179 113.8 10.8 241.5 12.4
2002-11-12 08:25:19 51°13.058 2°50.154 113.7 10.8 241.5 12.4
2002-11-12 08:25:23 51°13.052 2°50.138 114 10.8 241.7 12.5
2002-11-12 08:25:28 51°13.045 2°50.117 114.2 10.8 241.4 12.5
2002-11-12 08:25:33 51°13.038 2°50.096 114.5 10.8 241.4 12.5
2002-11-12 08:25:39 51°13.03 2°50.071 114.3 10.8 241.6 12.5
2002-11-12 08:25:43 51°13.024 2°50.054 114.7 10.8 242 12.5
2002-11-12 08:25:47 51°13.018 2°50.037 114.7 10.8 242.2 12.5
2002-11-12 08:25:53 51°13.01 2°50.012 114.3 10.7 242.2 12.5
2002-11-12 08:25:59 51°13.002 2°49.986 114.3 10.7 242.2 12.5
2002-11-12 08:26:03 51°12.996 2°49.97 114.2 10.8 242.2 12.5
2002-11-12 08:26:09 51°12.988 2°49.945 113.8 10.8 241.9 12.5
2002-11-12 08:26:13 51°12.982 2°49.928 114.3 10.8 241.8 12.6
2002-11-12 08:26:19 51°12.974 2°49.903 114.3 10.8 241.8 12.6
2002-11-12 08:26:23 51°12.968 2°49.886 114.3 10.8 241.8 12.6
2002-11-12 08:26:29 51°12.959 2°49.86 114.3 10.8 241.7 12.6
2002-11-12 08:26:33 51°12.954 2°49.844 114.5 10.8 241.8 12.6
2002-11-12 08:26:39 51°12.945 2°49.819 114.3 10.8 241.6 12.6
2002-11-12 08:26:43 51°12.94 2°49.802 114.5 10.8 241.9 12.6
2002-11-12 08:26:49 51°12.931 2°49.777 114.3 10.7 241.8 12.6
2002-11-12 08:26:53 51°12.926 2°49.759 114.7 10.8 242.4 12.6
2002-11-12 08:26:59 51°12.917 2°49.734 114.5 10.8 242.4 12.6
2002-11-12 08:27:03 51°12.911 2°49.717 114.2 10.8 241.8 12.6
2002-11-12 08:27:09 51°12.903 2°49.692 114.2 10.8 241.3 12.6
2002-11-12 08:27:14 51°12.896 2°49.671 114.5 10.8 241.5 12.6
2002-11-12 08:27:19 51°12.889 2°49.65 114.3 10.8 242 12.6
2002-11-12 08:27:23 51°12.883 2°49.633 114.3 10.8 241.9 12.6
2002-11-12 08:27:29 51°12.875 2°49.607 114.5 10.8 242.3 12.6
2002-11-12 08:27:34 51°12.867 2°49.587 114.5 10.8 242.1 12.7
2002-11-12 08:27:39 51°12.861 2°49.565 115.2 10.8 242.2 12.7
2002-11-12 08:27:43 51°12.855 2°49.548 115.8 10.8 242.9 12.7
2002-11-12 08:27:48 51°12.849 2°49.526 116 10.8 243.6 12.7
2002-11-12 08:27:54 51°12.841 2°49.501 115.7 10.8 243.6 12.7
2002-11-12 08:27:59 51°12.834 2°49.479 115.5 10.8 243.5 12.7
2002-11-12 08:28:04 51°12.826 2°49.458 115.2 10.8 242.8 12.7
2002-11-12 08:28:09 51°12.819 2°49.437 114.7 10.8 242.3 12.7
2002-11-12 08:28:13 51°12.814 2°49.42 115 10.8 242.1 12.7
2002-11-12 08:28:19 51°12.806 2°49.394 115.5 10.9 242.6 12.7
2002-11-12 08:28:23 51°12.8 2°49.378 115.5 10.8 242.7 12.7
2002-11-12 08:28:27 51°12.795 2°49.36 115.7 10.8 243.2 12.8
2002-11-12 08:28:34 51°12.785 2°49.331 115.3 10.8 243.3 12.8
2002-11-12 08:28:38 51°12.78 2°49.314 115.5 10.7 243.3 12.8
2002-11-12 08:28:43 51°12.773 2°49.293 115.3 10.7 243.1 12.8
2002-11-12 08:28:49 51°12.765 2°49.267 115.7 10.8 243.1 12.8
2002-11-12 08:28:54 51°12.758 2°49.246 115.7 10.8 243.3 12.8
2002-11-12 08:28:59 51°12.752 2°49.225 115.8 10.8 243.4 12.8
2002-11-12 08:29:03 51°12.746 2°49.208 115.8 10.7 243.4 12.8
2002-11-12 08:29:08 51°12.74 2°49.186 116 10.7 243.7 12.8
2002-11-12 08:29:13 51°12.733 2°49.164 115.7 10.8 243.5 12.8
2002-11-12 08:29:19 51°12.724 2°49.139 115.2 10.8 243 12.8
2002-11-12 08:29:23 51°12.719 2°49.122 115.3 10.8 242.9 12.9
2002-11-12 08:29:29 51°12.711 2°49.096 115.2 10.8 243.1 12.9
2002-11-12 08:29:34 51°12.704 2°49.075 115.2 10.8 243.1 12.8
2002-11-12 08:29:39 51°12.697 2°49.053 115.3 10.8 243.3 12.8
2002-11-12 08:29:43 51°12.692 2°49.037 115.3 10.8 243.2 12.9
2002-11-12 08:29:49 51°12.684 2°49.011 115.7 10.8 243.4 12.9
2002-11-12 08:29:54 51°12.677 2°48.99 115.8 10.8 243.4 12.9
2002-11-12 08:29:58 51°12.672 2°48.973 115.7 10.8 243.6 12.9
2002-11-12 08:30:03 51°12.665 2°48.952 115.5 10.7 243.6 12.9
2002-11-12 08:30:09 51°12.657 2°48.926 115.5 10.7 243.1 12.9
2002-11-12 08:30:14 51°12.65 2°48.905 115.3 10.7 242.5 13
2002-11-12 08:30:19 51°12.643 2°48.884 115 10.7 242.6 13
2002-11-12 08:30:23 51°12.638 2°48.867 115.2 10.7 242.3 13
2002-11-12 08:30:27 51°12.632 2°48.85 115.2 10.7 242.4 13
2002-11-12 08:30:34 51°12.622 2°48.821 115 10.8 242.3 13
2002-11-12 08:30:39 51°12.615 2°48.799 115.5 10.8 242.3 13
2002-11-12 08:30:43 51°12.61 2°48.782 115.7 10.7 242.8 13
2002-11-12 08:30:49 51°12.602 2°48.757 115.7 10.7 242.7 13
2002-11-12 08:30:54 51°12.595 2°48.736 115.8 10.7 242.5 13
2002-11-12 08:30:59 51°12.588 2°48.715 115.7 10.7 242.2 13.1
2002-11-12 08:31:03 51°12.582 2°48.698 115.7 10.7 242.4 13.1
2002-11-12 08:31:09 51°12.574 2°48.672 115.5 10.8 242.5 13.1
2002-11-12 08:31:14 51°12.567 2°48.651 115.7 10.8 242.6 13.1
2002-11-12 08:31:19 51°12.56 2°48.63 115.7 10.8 242.4 13.1
2002-11-12 08:31:23 51°12.555 2°48.613 115.5 10.9 242.4 13.1
2002-11-12 08:31:29 51°12.546 2°48.587 115.7 10.9 242.5 13.1
2002-11-12 08:31:33 51°12.541 2°48.57 115.5 10.9 242.7 13.1
2002-11-12 08:31:39 51°12.533 2°48.544 116 10.9 243 13.1
2002-11-12 08:31:43 51°12.527 2°48.527 115.8 10.9 243.4 13.1
2002-11-12 08:31:49 51°12.519 2°48.501 115.7 10.9 243.2 13.2
2002-11-12 08:31:54 51°12.512 2°48.48 115.5 10.9 242.8 13.2
2002-11-12 08:31:59 51°12.505 2°48.459 115.7 10.9 242.7 13.2
2002-11-12 08:32:03 51°12.499 2°48.442 115.8 10.8 242.6 13.2
2002-11-12 08:32:09 51°12.491 2°48.416 116 10.8 243 13.2
2002-11-12 08:32:14 51°12.484 2°48.395 115.8 10.9 243.5 13.2
2002-11-12 08:32:19 51°12.477 2°48.374 116 10.8 243.6 13.2
2002-11-12 08:32:23 51°12.472 2°48.357 115.8 10.8 243.2 13.2
2002-11-12 08:32:29 51°12.464 2°48.331 115.8 10.9 242.8 13.2
2002-11-12 08:32:34 51°12.457 2°48.31 115.7 10.9 243.1 13.2
2002-11-12 08:32:39 51°12.45 2°48.289 115.5 10.9 242.6 13.2
2002-11-12 08:32:43 51°12.444 2°48.271 115.7 10.8 242.9 13.2
2002-11-12 08:32:49 51°12.436 2°48.247 115.3 10.8 242.5 13.2
2002-11-12 08:32:54 51°12.429 2°48.225 115.7 10.8 242.3 13.2
2002-11-12 08:32:59 51°12.423 2°48.204 115.3 10.7 242.8 13.2
2002-11-12 08:33:04 51°12.416 2°48.183 115.5 10.7 242.7 13.2
2002-11-12 08:33:09 51°12.409 2°48.162 115.7 10.7 242.8 13.2
2002-11-12 08:33:14 51°12.402 2°48.14 115.3 10.8 242.8 13.2
2002-11-12 08:33:19 51°12.395 2°48.119 115.7 10.8 243 13.3
2002-11-12 08:33:23 51°12.389 2°48.102 115.5 10.9 242.6 13.3
2002-11-12 08:33:29 51°12.381 2°48.077 115.3 10.8 242.2 13.3
2002-11-12 08:33:31 51°12.378 2°48.068 115.5 10.9 242.4 13.3
2002-11-12 08:33:38 51°12.369 2°48.038 115.5 10.9 242.5 13.3
2002-11-12 08:33:43 51°12.362 2°48.017 115.8 10.9 242.7 13.3
2002-11-12 08:33:49 51°12.354 2°47.992 115.7 10.8 243 13.3
2002-11-12 08:33:54 51°12.347 2°47.97 115.7 10.8 242.9 13.3
2002-11-12 08:33:59 51°12.34 2°47.949 115.8 10.8 243 13.4
2002-11-12 08:34:03 51°12.335 2°47.932 115.7 10.8 243.3 13.4
2002-11-12 08:34:09 51°12.327 2°47.906 115.8 10.8 243.2 13.4
2002-11-12 08:34:13 51°12.321 2°47.889 115.5 10.8 243.4 13.4
2002-11-12 08:34:19 51°12.313 2°47.864 115.2 10.8 243.1 13.4
2002-11-12 08:34:23 51°12.307 2°47.847 115.5 10.9 242.8 13.4
2002-11-12 08:34:29 51°12.299 2°47.821 115.5 10.8 242.8 13.4
2002-11-12 08:34:34 51°12.292 2°47.8 115.3 10.8 242.7 13.4
2002-11-12 08:34:39 51°12.285 2°47.778 115.5 10.8 243.1 13.4
2002-11-12 08:34:43 51°12.28 2°47.762 115.7 10.8 243 13.4
2002-11-12 08:34:49 51°12.272 2°47.736 115.5 10.8 243 13.4
2002-11-12 08:34:54 51°12.265 2°47.715 115.3 10.8 243.3 13.4
2002-11-12 08:34:59 51°12.258 2°47.694 115.7 10.8 243.1 13.4
2002-11-12 08:35:03 51°12.253 2°47.676 115.8 10.8 243.5 13.4
2002-11-12 08:35:07 51°12.248 2°47.659 115.7 10.8 243.7 13.4
2002-11-12 08:35:14 51°12.239 2°47.63 115.7 10.8 243.7 13.4
2002-11-12 08:35:19 51°12.232 2°47.609 115.3 10.8 243.2 13.4
2002-11-12 08:35:23 51°12.226 2°47.592 115.2 10.8 242.7 13.4
2002-11-12 08:35:29 51°12.218 2°47.566 115.3 10.8 242.6 13.4
2002-11-12 08:35:33 51°12.213 2°47.549 115.3 10.8 243.1 13.4
2002-11-12 08:35:39 51°12.204 2°47.523 115.8 10.8 243.2 13.4
2002-11-12 08:35:43 51°12.199 2°47.506 115.5 10.8 243.5 13.5
2002-11-12 08:35:49 51°12.191 2°47.481 115.5 10.9 243.2 13.5
2002-11-12 08:35:54 51°12.184 2°47.46 115.3 10.9 243.2 13.5
2002-11-12 08:35:59 51°12.177 2°47.438 115.7 10.8 242.9 13.5
2002-11-12 08:36:03 51°12.172 2°47.421 115.7 10.8 243 13.5
2002-11-12 08:36:09 51°12.164 2°47.395 115.5 10.9 243 13.5
2002-11-12 08:36:14 51°12.157 2°47.374 115.8 10.9 243.1 13.5
2002-11-12 08:36:19 51°12.15 2°47.352 115.7 10.9 243.4 13.5
2002-11-12 08:36:23 51°12.145 2°47.335 115.5 10.9 243.5 13.5
2002-11-12 08:36:29 51°12.137 2°47.31 115.3 10.9 243.6 13.5
2002-11-12 08:36:33 51°12.131 2°47.293 115 10.9 242.8 13.5
2002-11-12 08:36:38 51°12.124 2°47.272 114.8 10.8 242 13.5
2002-11-12 08:36:43 51°12.117 2°47.251 115 10.8 241.7 13.5
2002-11-12 08:36:49 51°12.109 2°47.225 115.2 10.8 241.9 13.5
2002-11-12 08:36:54 51°12.102 2°47.203 115.5 10.9 242.6 13.5
2002-11-12 08:36:59 51°12.095 2°47.181 115.8 10.9 243.1 13.5
2002-11-12 08:37:03 51°12.09 2°47.164 116 10.9 243.4 13.5
2002-11-12 08:37:09 51°12.082 2°47.138 115.7 10.9 243.5 13.5
2002-11-12 08:37:14 51°12.075 2°47.117 115.5 10.9 243.5 13.5
2002-11-12 08:37:19 51°12.068 2°47.096 115.3 10.9 243.1 13.5
2002-11-12 08:37:23 51°12.063 2°47.079 115.5 10.9 242.9 13.6
2002-11-12 08:37:29 51°12.054 2°47.054 115.7 10.8 242.7 13.5
2002-11-12 08:37:33 51°12.049 2°47.037 115.5 10.8 243.1 13.5
2002-11-12 08:37:39 51°12.041 2°47.011 115.3 10.7 243.2 13.5
2002-11-12 08:37:43 51°12.035 2°46.994 115.7 10.7 242.9 13.5
2002-11-12 08:37:49 51°12.027 2°46.969 115.3 10.7 242.4 13.5
2002-11-12 08:37:53 51°12.021 2°46.952 115.3 10.8 242.1 13.5
2002-11-12 08:37:59 51°12.013 2°46.927 115.2 10.8 242.4 13.5
2002-11-12 08:38:03 51°12.008 2°46.91 115.7 10.8 242.3 13.6
2002-11-12 08:38:09 51°12 2°46.885 115.8 10.8 243.1 13.6
2002-11-12 08:38:14 51°11.993 2°46.864 115.7 10.8 242.9 13.6
2002-11-12 08:38:19 51°11.986 2°46.843 115.2 10.7 242.7 13.6
2002-11-12 08:38:23 51°11.98 2°46.826 115.5 10.8 242.6 13.5
2002-11-12 08:38:29 51°11.972 2°46.801 115.5 10.7 242.7 13.6
2002-11-12 08:38:33 51°11.967 2°46.784 115.3 10.7 242.5 13.6
2002-11-12 08:38:39 51°11.959 2°46.758 115.2 10.7 242.6 13.6
2002-11-12 08:38:43 51°11.953 2°46.741 115.5 10.7 243.1 13.6
2002-11-12 08:38:49 51°11.945 2°46.716 115.7 10.7 243.3 13.6
2002-11-12 08:38:53 51°11.94 2°46.699 115.8 10.7 243 13.6
2002-11-12 08:38:59 51°11.932 2°46.674 115.5 10.7 243.1 13.6
2002-11-12 08:39:03 51°11.927 2°46.657 115.3 10.7 243.1 13.6
2002-11-12 08:39:09 51°11.919 2°46.631 115.3 10.7 243.1 13.6
2002-11-12 08:39:14 51°11.912 2°46.61 115.5 10.7 243 13.6
2002-11-12 08:39:19 51°11.905 2°46.589 115.7 10.7 243 13.6
2002-11-12 08:39:24 51°11.898 2°46.568 116 10.7 243.2 13.6
2002-11-12 08:39:29 51°11.892 2°46.547 115.8 10.7 243.6 13.6
2002-11-12 08:39:33 51°11.887 2°46.53 115.5 10.8 243.7 13.6
2002-11-12 08:39:39 51°11.879 2°46.505 115.3 10.8 243.8 13.6
2002-11-12 08:39:43 51°11.873 2°46.488 115.5 10.8 243.1 13.6
2002-11-12 08:39:49 51°11.865 2°46.462 115.5 10.8 243.3 13.6
2002-11-12 08:39:54 51°11.858 2°46.441 115.5 10.8 243.2 13.6
2002-11-12 08:39:59 51°11.851 2°46.42 115.3 10.8 242.9 13.6
2002-11-12 08:40:03 51°11.846 2°46.403 115.5 10.8 243.3 13.6
2002-11-12 08:40:09 51°11.838 2°46.378 115.3 10.8 243.2 13.6
2002-11-12 08:40:13 51°11.832 2°46.36 115.5 10.8 242.9 13.6
2002-11-12 08:40:19 51°11.824 2°46.334 115.5 10.8 243.1 13.6
2002-11-12 08:40:23 51°11.819 2°46.317 115.5 10.8 243.4 13.6
2002-11-12 08:40:29 51°11.81 2°46.292 115.7 10.8 243.2 13.6
2002-11-12 08:40:34 51°11.804 2°46.271 115.8 10.8 243 13.6
2002-11-12 08:40:39 51°11.797 2°46.249 116.2 10.8 243 13.6
2002-11-12 08:40:43 51°11.792 2°46.233 116 10.8 243.8 13.6
2002-11-12 08:40:49 51°11.784 2°46.207 116 10.8 243.6 13.6
2002-11-12 08:40:53 51°11.778 2°46.19 115.7 10.8 243.6 13.6
2002-11-12 08:40:59 51°11.77 2°46.164 115.7 10.8 243.5 13.6
2002-11-12 08:41:03 51°11.765 2°46.147 115.7 10.8 243.5 13.6
2002-11-12 08:41:09 51°11.757 2°46.122 115.5 10.8 243.4 13.6
2002-11-12 08:41:13 51°11.751 2°46.104 115.3 10.8 243.3 13.5
2002-11-12 08:41:19 51°11.743 2°46.079 115.2 10.8 243.1 13.6
2002-11-12 08:41:23 51°11.738 2°46.062 115.2 10.8 242.9 13.6
2002-11-12 08:41:29 51°11.73 2°46.037 115.3 10.7 242.9 13.5
2002-11-12 08:41:34 51°11.723 2°46.016 115.3 10.7 243.1 13.6
2002-11-12 08:41:39 51°11.716 2°45.995 115.5 10.7 243.1 13.5
2002-11-12 08:41:43 51°11.711 2°45.978 116 10.7 243.6 13.6
2002-11-12 08:41:49 51°11.703 2°45.952 115.8 10.7 243.8 13.4
2002-11-12 08:41:54 51°11.696 2°45.931 116.2 10.7 243.8 13.5
2002-11-12 08:41:59 51°11.69 2°45.91 115.7 10.7 244.1 13.5
2002-11-12 08:42:04 51°11.683 2°45.889 115.3 10.7 243.7 13.5
2002-11-12 08:42:09 51°11.676 2°45.868 115.3 10.7 243.1 13.6
2002-11-12 08:42:14 51°11.669 2°45.847 115.3 10.7 242.9 13.5
2002-11-12 08:42:19 51°11.663 2°45.826 115 10.7 242.8 13.5
2002-11-12 08:42:23 51°11.657 2°45.809 115.3 10.7 242.9 13.5
2002-11-12 08:42:29 51°11.649 2°45.784 115.5 10.7 243.4 13.4
2002-11-12 08:42:33 51°11.644 2°45.767 115.8 10.7 243.7 13.4
2002-11-12 08:42:39 51°11.636 2°45.741 115.7 10.7 244.1 13.4
2002-11-12 08:42:43 51°11.631 2°45.725 115.2 10.7 243.7 13.4
2002-11-12 08:42:49 51°11.623 2°45.699 115.5 10.7 243.7 13.5
2002-11-12 08:42:53 51°11.618 2°45.682 115.2 10.7 243.3 13.5
2002-11-12 08:42:59 51°11.61 2°45.657 115.5 10.7 243.4 13.4
2002-11-12 08:43:03 51°11.604 2°45.64 115.5 10.8 243.4 13.4
2002-11-12 08:43:09 51°11.596 2°45.615 115.5 10.8 243.6 13.4
2002-11-12 08:43:13 51°11.591 2°45.598 115.5 10.8 243.5 13.4
2002-11-12 08:43:19 51°11.583 2°45.572 115.5 10.8 243.2 13.4
2002-11-12 08:43:23 51°11.578 2°45.555 115.3 10.8 243.1 13.4
2002-11-12 08:43:29 51°11.57 2°45.53 115.2 10.7 243.4 13.3
2002-11-12 08:43:34 51°11.564 2°45.509 115.5 10.8 243.6 13.3
2002-11-12 08:43:39 51°11.557 2°45.487 115.7 10.8 243.8 13.3
2002-11-12 08:43:43 51°11.551 2°45.471 115.8 10.8 243.6 13.3
2002-11-12 08:43:49 51°11.544 2°45.445 116.2 10.8 244 13.3
2002-11-12 08:43:53 51°11.539 2°45.427 116.5 10.8 244.4 13.3
2002-11-12 08:43:58 51°11.532 2°45.406 117.5 10.8 245 13.3
2002-11-12 08:44:03 51°11.526 2°45.384 117.7 10.8 245.4 13.3
2002-11-12 08:44:09 51°11.519 2°45.358 118 10.8 245.9 13.2
2002-11-12 08:44:14 51°11.513 2°45.336 118.8 10.8 246.2 13.2
2002-11-12 08:44:19 51°11.507 2°45.314 119.2 10.8 246.6 13.2
2002-11-12 08:44:23 51°11.503 2°45.296 119.5 10.9 247.1 13.2
2002-11-12 08:44:29 51°11.496 2°45.27 119.5 10.9 247.2 13.2
2002-11-12 08:44:33 51°11.491 2°45.252 119.2 10.8 247.6 13.2
2002-11-12 08:44:39 51°11.484 2°45.225 118.7 10.8 247.3 13.2
2002-11-12 08:44:43 51°11.479 2°45.208 118.5 10.8 246.6 13.2
2002-11-12 08:44:49 51°11.472 2°45.181 118.5 10.8 246.5 13.2
2002-11-12 08:44:54 51°11.466 2°45.159 118.8 10.9 247 13.2
2002-11-12 08:44:59 51°11.46 2°45.137 119 10.9 247.5 13.2
2002-11-12 08:45:03 51°11.456 2°45.12 118.8 10.9 247.4 13.2
2002-11-12 08:45:09 51°11.448 2°45.093 118.8 10.9 247.2 13.2
2002-11-12 08:45:13 51°11.444 2°45.076 118.7 10.9 246.6 13.2
2002-11-12 08:45:19 51°11.437 2°45.049 118.8 10.9 246.7 13.2
2002-11-12 08:45:23 51°11.433 2°45.031 119 10.9 247.2 13.2
2002-11-12 08:45:29 51°11.426 2°45.005 119.2 10.8 247.5 13.2
2002-11-12 08:45:33 51°11.421 2°44.987 119.2 10.8 247.8 13.2
2002-11-12 08:45:39 51°11.414 2°44.961 119 10.8 247.8 13.2
2002-11-12 08:45:43 51°11.41 2°44.943 118.7 10.8 247.6 13.2
2002-11-12 08:45:49 51°11.403 2°44.916 119.3 10.8 247.5 13
2002-11-12 08:45:53 51°11.398 2°44.899 119.8 10.8 248.2 13.2
2002-11-12 08:45:59 51°11.392 2°44.872 120.3 10.8 248.4 13.1
2002-11-12 08:46:03 51°11.388 2°44.854 120.8 10.8 249.2 13.2
2002-11-12 08:46:09 51°11.381 2°44.828 121 10.8 249.3 13.2
2002-11-12 08:46:13 51°11.377 2°44.81 120.5 10.8 249.4 13.2
2002-11-12 08:46:19 51°11.371 2°44.783 120.7 10.8 249.2 13.2
2002-11-12 08:46:23 51°11.367 2°44.765 120.5 10.8 249.5 13.2
2002-11-12 08:46:29 51°11.36 2°44.738 120 10.8 249.1 13.2
2002-11-12 08:46:34 51°11.355 2°44.716 120.3 10.8 248.8 13.2
2002-11-12 08:46:39 51°11.349 2°44.694 120.2 10.8 248.4 13.1
2002-11-12 08:46:43 51°11.345 2°44.676 120.5 10.8 248.7 13.2
2002-11-12 08:46:49 51°11.338 2°44.649 121.2 10.9 249 13.2
2002-11-12 08:46:54 51°11.333 2°44.626 121.3 10.9 249.8 13.1
2002-11-12 08:46:59 51°11.328 2°44.604 121 10.9 249.4 13.2
2002-11-12 08:47:03 51°11.323 2°44.586 120.7 10.9 249.4 13.2
2002-11-12 08:47:09 51°11.317 2°44.559 120.7 10.9 249.1 13.1
2002-11-12 08:47:14 51°11.311 2°44.536 120.5 10.9 249.2 13.1
2002-11-12 08:47:19 51°11.306 2°44.514 120.7 10.9 249.2 13.1
2002-11-12 08:47:23 51°11.302 2°44.496 120.5 11 249.4 13.1
2002-11-12 08:47:29 51°11.295 2°44.469 120.3 11 249.1 13.1
2002-11-12 08:47:34 51°11.29 2°44.446 120.3 11 248.8 13.1
2002-11-12 08:47:39 51°11.284 2°44.424 120.3 11 248.9 13.1
2002-11-12 08:47:43 51°11.28 2°44.406 120.7 11 249.1 13.1
2002-11-12 08:47:49 51°11.273 2°44.379 120.7 11 249 13.1
2002-11-12 08:47:54 51°11.268 2°44.356 120.8 11 249.1 13.1
2002-11-12 08:47:59 51°11.263 2°44.334 121.2 11 249.4 13.1
2002-11-12 08:48:03 51°11.259 2°44.315 121.3 11 249.7 13.1
2002-11-12 08:48:09 51°11.252 2°44.288 120.7 11 249.8 13
2002-11-12 08:48:13 51°11.248 2°44.27 120.5 11 249.6 13
2002-11-12 08:48:19 51°11.241 2°44.243 120.2 11 249.1 13.1
2002-11-12 08:48:23 51°11.237 2°44.225 120.3 11 248.5 13.1
2002-11-12 08:48:29 51°11.23 2°44.197 120.2 11 248.5 13.1
2002-11-12 08:48:34 51°11.225 2°44.175 120.7 11 249.4 13.1
2002-11-12 08:48:39 51°11.22 2°44.152 120.8 11 249.6 13.1
2002-11-12 08:48:43 51°11.215 2°44.134 120.7 11 249.9 13
2002-11-12 08:48:49 51°11.209 2°44.106 121 11 250.1 13
2002-11-12 08:48:54 51°11.204 2°44.084 120.8 11 250.3 13
2002-11-12 08:48:59 51°11.198 2°44.061 120.7 11 249.8 13
2002-11-12 08:49:03 51°11.194 2°44.043 121 11 249.5 13
2002-11-12 08:49:09 51°11.188 2°44.016 120.8 11 249.6 13.1
2002-11-12 08:49:14 51°11.182 2°43.993 120.5 11 249.5 13
2002-11-12 08:49:19 51°11.177 2°43.971 120.3 11 249.3 13
2002-11-12 08:49:23 51°11.172 2°43.953 120.2 11 248.9 13
2002-11-12 08:49:29 51°11.166 2°43.926 120.2 10.9 249 13
2002-11-12 08:49:33 51°11.161 2°43.908 120.3 10.9 248.9 13
2002-11-12 08:49:39 51°11.155 2°43.881 120.5 10.9 249.2 13
2002-11-12 08:49:43 51°11.151 2°43.862 120.7 11 249.3 13
2002-11-12 08:49:49 51°11.144 2°43.836 120.3 11 249.3 13
2002-11-12 08:49:53 51°11.14 2°43.818 120.3 11 248.7 13
2002-11-12 08:49:59 51°11.133 2°43.79 120.5 11 248.6 13
2002-11-12 08:50:03 51°11.129 2°43.772 120.5 11 249 13
2002-11-12 08:50:09 51°11.122 2°43.745 120.2 11 248.9 13
2002-11-12 08:50:13 51°11.118 2°43.727 120.3 11 248.7 13
2002-11-12 08:50:19 51°11.111 2°43.7 120.7 11 248.9 13
2002-11-12 08:50:23 51°11.107 2°43.682 120.8 11 249.1 13
2002-11-12 08:50:29 51°11.1 2°43.655 120.5 11 248.8 13
2002-11-12 08:50:34 51°11.095 2°43.632 120.5 11 248.9 13
2002-11-12 08:50:39 51°11.089 2°43.61 120.2 11 249.1 13
2002-11-12 08:50:43 51°11.086 2°43.593 120.8 10.7 248.6 13
2002-11-12 08:50:49 51°11.081 2°43.57 124 9.9 249.8 13
2002-11-12 08:50:54 51°11.078 2°43.553 127.2 8.8 253.5 13
2002-11-12 08:50:59 51°11.076 2°43.537 130.5 8.3 255 13.1
2002-11-12 08:51:04 51°11.075 2°43.521 135.2 7.4 260.2 13.1
2002-11-12 08:51:09 51°11.075 2°43.507 140.7 7 264.2 13.1
2002-11-12 08:51:14 51°11.076 2°43.494 147.2 6.5 271.4 13.1
2002-11-12 08:51:19 51°11.078 2°43.481 153.7 6.1 278 13.2
2002-11-12 08:51:23 51°11.08 2°43.472 161.2 5.8 284.7 13.2
2002-11-12 08:51:29 51°11.085 2°43.459 167.3 5.5 291.5 13.2
2002-11-12 08:51:33 51°11.088 2°43.451 173.5 5.3 298.1 13.1
2002-11-12 08:51:39 51°11.093 2°43.44 180 5.2 304.5 13.2
2002-11-12 08:51:43 51°11.097 2°43.434 186.2 5.1 310.9 13.2
2002-11-12 08:51:49 51°11.103 2°43.426 191.8 5 317.7 13.2
2002-11-12 08:51:53 51°11.108 2°43.422 198.5 4.9 324.3 13.2
2002-11-12 08:51:59 51°11.115 2°43.416 204.2 4.8 330 13.2
2002-11-12 08:52:03 51°11.12 2°43.413 210.2 4.7 336.1 13.2
2002-11-12 08:52:09 51°11.127 2°43.41 217 4.7 338.5 13.3
2002-11-12 08:52:13 51°11.133 2°43.409 222.7 4.6 347.8 13.4
2002-11-12 08:52:19 51°11.14 2°43.409 228.5 4.6 352.2 13.4
2002-11-12 08:52:23 51°11.145 2°43.409 233.7 4.6 358.9 13.4
2002-11-12 08:52:29 51°11.153 2°43.411 240 4.6 4.2 13.4
2002-11-12 08:52:31 51°11.155 2°43.412 246.7 4.5 10 13.4
2002-11-12 08:52:39 51°11.165 2°43.416 252.5 4.5 13.8 13.3
2002-11-12 08:52:43 51°11.169 2°43.419 258.2 4.4 20.6 13.4
2002-11-12 08:52:49 51°11.175 2°43.425 264 4.3 27.2 13.4
2002-11-12 08:52:54 51°11.18 2°43.43 269.7 4.3 30.5 13.4
2002-11-12 08:52:59 51°11.185 2°43.437 276 4.3 35.4 13.4
2002-11-12 08:53:04 51°11.189 2°43.443 282 4.2 41.3 13.4
2002-11-12 08:53:09 51°11.192 2°43.45 288.8 4.2 45.5 13.5
2002-11-12 08:53:14 51°11.196 2°43.457 293.3 4.1 51.4 13.5
2002-11-12 08:53:19 51°11.198 2°43.465 299.3 4 54.8 13.5
2002-11-12 08:53:23 51°11.2 2°43.471 305.7 3.9 60.9 13.5
2002-11-12 08:53:29 51°11.202 2°43.48 310.2 3.8 65.7 13.5
2002-11-12 08:53:34 51°11.204 2°43.488 313.7 3.8 68.4 13.5
2002-11-12 08:53:39 51°11.206 2°43.496 315 3.9 69.9 13.5
2002-11-12 08:53:43 51°11.207 2°43.503 316.2 4 71.3 13.5
2002-11-12 08:53:49 51°11.209 2°43.513 316.5 4 71.9 13.5
2002-11-12 08:53:53 51°11.21 2°43.521 316.8 4.1 73.5 13.5
2002-11-12 08:53:59 51°11.212 2°43.531 316.7 4.2 74.2 13.5
2002-11-12 08:54:03 51°11.214 2°43.539 317 4.2 75.1 13.5
2002-11-12 08:54:09 51°11.216 2°43.55 317.3 4.3 74.6 13.5
2002-11-12 08:54:14 51°11.217 2°43.56 317.5 4.4 74.9 13.4
2002-11-12 08:54:19 51°11.219 2°43.569 318 4.5 75 13.4
2002-11-12 08:54:23 51°11.22 2°43.577 318.2 4.5 76.6 13.4
2002-11-12 08:54:29 51°11.221 2°43.589 321 4.6 77.4 13.4
2002-11-12 08:54:34 51°11.222 2°43.598 324.7 4.5 80.2 13.4
2002-11-12 08:54:39 51°11.223 2°43.608 329.3 4.4 83.4 13.4
2002-11-12 08:54:43 51°11.223 2°43.615 333 4.3 86.5 13.4
2002-11-12 08:54:49 51°11.222 2°43.626 336.5 4.2 90.4 13.5
2002-11-12 08:54:54 51°11.222 2°43.636 339 4.2 92.9 13.4
2002-11-12 08:54:59 51°11.221 2°43.645 341 4.2 94.4 13.4
2002-11-12 08:55:03 51°11.22 2°43.652 343.3 4.1 97.3 13.4
2002-11-12 08:55:09 51°11.219 2°43.663 345 4.1 99.1 13.4
2002-11-12 08:55:14 51°11.218 2°43.672 347.5 4.1 101.3 13.4
2002-11-12 08:55:19 51°11.216 2°43.68 350.3 4.1 104.5 13.4
2002-11-12 08:55:23 51°11.215 2°43.687 353.2 4.1 107.3 13.4
2002-11-12 08:55:29 51°11.212 2°43.697 355.5 4.1 110.9 13.4
2002-11-12 08:55:33 51°11.211 2°43.704 357.7 4 112 13.4
2002-11-12 08:55:39 51°11.208 2°43.713 359.2 4 112.2 13.4
2002-11-12 08:55:43 51°11.206 2°43.72 0.8 4 114.1 13.3
2002-11-12 08:55:49 51°11.203 2°43.729 3.5 4 117.1 13.3
2002-11-12 08:55:54 51°11.201 2°43.736 6.2 3.9 119.8 13.3
2002-11-12 08:55:59 51°11.198 2°43.743 9.7 3.8 121.8 13.3
2002-11-12 08:56:03 51°11.195 2°43.747 12.8 3.6 125.9 13.2
2002-11-12 08:56:09 51°11.193 2°43.754 13.7 3.2 126.9 13.2
2002-11-12 08:56:14 51°11.191 2°43.757 15.5 2.6 126.1 13.3
2002-11-12 08:56:19 51°11.19 2°43.761 17.3 2.1 123.2 13.3
2002-11-12 08:56:23 51°11.19 2°43.762 19.7 1.4 116.6 13.3
2002-11-12 08:56:29 51°11.191 2°43.764 21.5 0.9 80.3 13.2
2002-11-12 08:56:34 51°11.193 2°43.764 21.3 0.9 20.3 13.2
2002-11-12 08:56:39 51°11.195 2°43.763 20.3 1.4 359.4 13.2
2002-11-12 08:56:43 51°11.196 2°43.763 18.8 1.6 356 -999
2002-11-12 08:56:50 51°11.199 2°43.763 16.7 1.5 355.3 -999
2002-11-12 08:56:55 51°11.201 2°43.763 14 1.4 356.7 -999
2002-11-12 08:57:00 51°11.202 2°43.764 11.2 1.2 8.9 -999
2002-11-12 08:57:05 51°11.203 2°43.765 8 1 23.2 -999
2002-11-12 08:57:09 51°11.204 2°43.766 5.7 0.9 37 -999
2002-11-12 08:57:14 51°11.205 2°43.768 2.8 0.9 43.5 -999
2002-11-12 08:57:19 51°11.205 2°43.769 359.8 0.9 48.8 -999
2002-11-12 08:57:23 51°11.206 2°43.771 357.2 0.9 53.3 -999
2002-11-12 08:57:30 51°11.207 2°43.773 355 1 56.5 -999
2002-11-12 08:57:35 51°11.208 2°43.775 353 1 58.9 -999
2002-11-12 08:57:39 51°11.209 2°43.777 350.5 1.1 63.8 13.3
2002-11-12 08:57:44 51°11.209 2°43.78 348.7 1.2 65.8 13.3
2002-11-12 08:57:49 51°11.21 2°43.782 347.7 1.2 67.4 13.3
2002-11-12 08:57:54 51°11.211 2°43.785 346.5 1.3 67.3 13.3
2002-11-12 08:57:59 51°11.211 2°43.788 345.7 1.3 69 13.3
2002-11-12 08:58:03 51°11.212 2°43.79 345 1.4 69.8 13.3
2002-11-12 08:58:09 51°11.213 2°43.794 344.2 1.3 70 13.3
2002-11-12 08:58:14 51°11.214 2°43.797 343.7 1.3 70 13.3
2002-11-12 08:58:19 51°11.214 2°43.8 343.3 1.3 67.5 13.3
2002-11-12 08:58:23 51°11.215 2°43.802 343 1.4 67.2 13.3
2002-11-12 08:58:29 51°11.216 2°43.805 342.7 1.4 69 13.3
2002-11-12 08:58:34 51°11.217 2°43.808 342.3 1.3 71.2 13.3
2002-11-12 08:58:39 51°11.217 2°43.81 342.2 1.4 66.3 13.3
2002-11-12 08:58:43 51°11.218 2°43.812 342 1.3 65.1 13.3
2002-11-12 08:58:49 51°11.219 2°43.815 342 1.4 61.7 13.3
2002-11-12 08:58:54 51°11.221 2°43.818 341.8 1.3 62.1 13.3
2002-11-12 08:58:59 51°11.222 2°43.82 341.8 1.3 60.7 13.3
2002-11-12 08:59:03 51°11.223 2°43.822 341.8 1.2 63.5 13.2
2002-11-12 08:59:07 51°11.224 2°43.824 341.7 1.2 64.4 13.3
2002-11-12 08:59:14 51°11.225 2°43.827 341.8 1.2 62 13.3
2002-11-12 08:59:19 51°11.225 2°43.83 342 1.2 60.2 13.3
2002-11-12 08:59:23 51°11.226 2°43.831 342.3 1.2 58.6 13.3
2002-11-12 08:59:29 51°11.225 2°43.833 342.3 1.1 61.4 13.3
2002-11-12 08:59:33 51°11.225 2°43.835 342.7 1.1 60.9 13.3
2002-11-12 08:59:39 51°11.225 2°43.837 342.8 1.1 61 13.3
2002-11-12 08:59:43 51°11.227 2°43.839 343.2 1.1 60.1 13.3
2002-11-12 08:59:49 51°11.227 2°43.842 343.3 1.1 60.3 13.3
2002-11-12 08:59:54 51°11.228 2°43.844 343.3 1.1 58.5 13.3
2002-11-12 08:59:59 51°11.228 2°43.846 343.5 1.1 55.7 13.3
2002-11-12 09:00:03 51°11.229 2°43.847 343.2 1.2 51 13.3
2002-11-12 09:00:09 51°11.23 2°43.85 342.5 1.2 51.1 13.3
2002-11-12 09:00:14 51°11.232 2°43.851 342 1.1 51.9 13.3
2002-11-12 09:00:19 51°11.233 2°43.853 341.7 1.1 50 13.3
2002-11-12 09:00:23 51°11.234 2°43.855 341.2 1.2 47.2 13.3
2002-11-12 09:00:29 51°11.234 2°43.857 340.7 1.2 49.4 13.4
2002-11-12 09:00:33 51°11.235 2°43.859 340.2 1.1 51.2 13.3
2002-11-12 09:00:39 51°11.236 2°43.861 339.7 1.1 51.7 13.3
2002-11-12 09:00:43 51°11.237 2°43.862 339.3 1.1 51.7 13.3
2002-11-12 09:00:49 51°11.238 2°43.864 339 1.1 51.9 13.3
2002-11-12 09:00:53 51°11.239 2°43.866 338.3 1.1 49.7 13.4
2002-11-12 09:00:59 51°11.24 2°43.868 337.8 1.1 48.7 13.3
2002-11-12 09:01:03 51°11.241 2°43.87 337.2 1.1 47.4 13.3
2002-11-12 09:01:09 51°11.242 2°43.872 336.8 1.2 46.3 13.3
2002-11-12 09:01:14 51°11.243 2°43.874 336.3 1.2 47.3 13.3
2002-11-12 09:01:19 51°11.244 2°43.876 335.8 1.2 45.7 13.3
2002-11-12 09:01:23 51°11.245 2°43.877 335.5 1.2 45.1 13.3
2002-11-12 09:01:29 51°11.246 2°43.879 335.2 1.2 45.5 13.3
2002-11-12 09:01:34 51°11.248 2°43.881 334.8 1.2 43.9 13.3
2002-11-12 09:01:39 51°11.249 2°43.883 334.7 1.3 43.4 13.3
2002-11-12 09:01:43 51°11.25 2°43.884 334.5 1.2 44.3 13.3
2002-11-12 09:01:49 51°11.251 2°43.887 334.2 1.2 45.7 13.3
2002-11-12 09:01:54 51°11.252 2°43.888 334 1.2 45.2 13.4
2002-11-12 09:01:59 51°11.253 2°43.89 333.8 1.1 45.7 13.4
2002-11-12 09:02:03 51°11.254 2°43.892 333.5 1.2 44.4 13.3
2002-11-12 09:02:09 51°11.256 2°43.894 333.2 1.2 43.9 13.3
2002-11-12 09:02:14 51°11.257 2°43.896 332.8 1.2 42.3 13.4
2002-11-12 09:02:19 51°11.258 2°43.898 332.5 1.2 42.6 13.3
2002-11-12 09:02:23 51°11.259 2°43.899 332 1.2 41.5 13.3
2002-11-12 09:02:29 51°11.26 2°43.901 331.7 1.2 42.2 13
2002-11-12 09:02:33 51°11.261 2°43.902 331.3 1.2 42.4 13.3
2002-11-12 09:02:38 51°11.263 2°43.904 331.2 1.2 41.5 13.4
2002-11-12 09:02:43 51°11.264 2°43.906 331.2 1.1 41.6 13.3
2002-11-12 09:02:49 51°11.265 2°43.908 331 1.2 41.9 13.4
2002-11-12 09:02:54 51°11.266 2°43.91 330.8 1.2 42.3 13.4
2002-11-12 09:02:59 51°11.267 2°43.911 330.7 1.2 41.7 13.4
2002-11-12 09:03:03 51°11.268 2°43.913 330.5 1.2 42 13.3
2002-11-12 09:03:09 51°11.27 2°43.915 330.7 1.1 43.6 13.4
2002-11-12 09:03:14 51°11.271 2°43.916 330.8 1.1 42.6 13.4
2002-11-12 09:03:19 51°11.272 2°43.918 330.7 1.1 42 13.3
2002-11-12 09:03:23 51°11.273 2°43.919 330.5 1.1 41.7 13.3
2002-11-12 09:03:29 51°11.274 2°43.921 330.5 1 43.1 13.4
2002-11-12 09:03:33 51°11.275 2°43.922 330.3 1 43.4 13.4
2002-11-12 09:03:39 51°11.277 2°43.924 330.2 1 42.8 13.4
2002-11-12 09:03:43 51°11.278 2°43.926 329.8 1.1 39.8 13.4
2002-11-12 09:03:49 51°11.279 2°43.927 329.5 1.1 37.6 13.4
2002-11-12 09:03:54 51°11.28 2°43.929 329.2 1.1 38 13.4
2002-11-12 09:03:59 51°11.282 2°43.93 328.8 1.1 36.8 13.4
2002-11-12 09:04:03 51°11.283 2°43.932 328.2 1.1 37.2 13.4
2002-11-12 09:04:09 51°11.284 2°43.934 327.7 1.1 36.9 13.4
2002-11-12 09:04:13 51°11.285 2°43.935 327.5 1.1 37.4 13.4
2002-11-12 09:04:19 51°11.287 2°43.937 327.3 1.2 37.2 13.4
2002-11-12 09:04:23 51°11.288 2°43.938 327 1.2 37.7 13.4
2002-11-12 09:04:28 51°11.289 2°43.939 327 1.2 37.8 13.4
2002-11-12 09:04:34 51°11.29 2°43.941 326.8 1.2 38 13.4
2002-11-12 09:04:39 51°11.292 2°43.943 326.5 1.2 36 13.4
2002-11-12 09:04:43 51°11.293 2°43.944 326.2 1.2 35.4 13.4
2002-11-12 09:04:49 51°11.294 2°43.946 325.7 1.2 35.2 13.4
2002-11-12 09:04:54 51°11.296 2°43.947 325.2 1.3 35.4 13.4
2002-11-12 09:04:59 51°11.297 2°43.949 325 1.2 36.4 13.4
2002-11-12 09:05:03 51°11.298 2°43.95 324.7 1.2 36.6 13.4
2002-11-12 09:05:09 51°11.299 2°43.952 324.7 1.1 38.8 13.4
2002-11-12 09:05:14 51°11.301 2°43.953 324.5 1.1 39.3 13.4
2002-11-12 09:05:19 51°11.302 2°43.955 324.5 1.2 39.5 13.4
2002-11-12 09:05:22 51°11.303 2°43.956 324.5 1.2 39.6 13.4
2002-11-12 09:05:29 51°11.304 2°43.958 324.7 1.1 42 13.3
2002-11-12 09:05:34 51°11.306 2°43.96 324.8 1.1 40.1 13.4
2002-11-12 09:05:39 51°11.307 2°43.962 324.7 1.1 40.4 13.4
2002-11-12 09:05:44 51°11.308 2°43.963 325 1.1 39.8 13.4
2002-11-12 09:05:49 51°11.309 2°43.965 325 1.2 39.5 13.4
2002-11-12 09:05:53 51°11.31 2°43.966 324.8 1.1 40.4 13.4
2002-11-12 09:05:58 51°11.311 2°43.968 324.7 1.1 40.7 13.4
2002-11-12 09:06:03 51°11.312 2°43.968 324.5 1.1 39 13.4
2002-11-12 09:06:08 51°11.314 2°43.97 324.2 1.1 38 13.4
2002-11-12 09:06:13 51°11.315 2°43.971 324.2 1.1 38.5 13.4
2002-11-12 09:06:19 51°11.316 2°43.973 324.5 1.1 37.2 13.4
2002-11-12 09:06:23 51°11.317 2°43.974 324.5 1.2 37.2 13.4
2002-11-12 09:06:29 51°11.319 2°43.976 324.5 1.1 37.7 13.3
2002-11-12 09:06:34 51°11.32 2°43.978 324.8 1.1 39.9 13.4
2002-11-12 09:06:39 51°11.321 2°43.98 325 1.1 40.1 13.4
2002-11-12 09:06:44 51°11.322 2°43.982 325.2 1.1 39.1 13.4
2002-11-12 09:06:49 51°11.324 2°43.983 325.2 1.1 39.1 13.4
2002-11-12 09:06:54 51°11.325 2°43.985 325.3 1.1 38.7 13.4
2002-11-12 09:06:59 51°11.326 2°43.986 325.2 1.1 38.9 13.4
2002-11-12 09:07:03 51°11.327 2°43.988 325.2 1.1 39.8 13.4
2002-11-12 09:07:09 51°11.328 2°43.989 325 1.1 41.4 13.4
2002-11-12 09:07:14 51°11.329 2°43.991 325.2 1.1 42.1 13.4
2002-11-12 09:07:19 51°11.331 2°43.993 324.8 1.1 43 13.4
2002-11-12 09:07:23 51°11.332 2°43.994 324.8 1 40.1 13.4
2002-11-12 09:07:29 51°11.333 2°43.995 324.8 1 37.7 13.4
2002-11-12 09:07:34 51°11.334 2°43.996 325 1 31.9 13.4
2002-11-12 09:07:39 51°11.335 2°43.997 325.2 1 29.7 13.4
2002-11-12 09:07:43 51°11.337 2°43.998 325.5 1 26.1 13.4
2002-11-12 09:07:49 51°11.338 2°43.999 325.5 1 23.4 13.4
2002-11-12 09:07:54 51°11.339 2°44.001 325.7 1 28.4 13.4
2002-11-12 09:07:58 51°11.34 2°44.002 327 1 38.4 13.4
2002-11-12 09:08:03 51°11.341 2°44.004 329.2 1.2 48.1 13.4
2002-11-12 09:08:07 51°11.342 2°44.006 331 1.2 51.4 13.4
2002-11-12 09:08:14 51°11.343 2°44.009 332.3 1.2 52.7 13.4
2002-11-12 09:08:19 51°11.344 2°44.011 333.2 1.2 51.6 13.4
2002-11-12 09:08:23 51°11.345 2°44.013 334 1.2 51.3 13.4
2002-11-12 09:08:29 51°11.346 2°44.016 334.7 1.2 54.2 13.4
2002-11-12 09:08:34 51°11.347 2°44.018 336.3 1.4 57.9 13.4
2002-11-12 09:08:39 51°11.348 2°44.021 337.5 1.3 61 13.4
2002-11-12 09:08:43 51°11.349 2°44.022 338.2 1.3 60.3 13.4
2002-11-12 09:08:49 51°11.35 2°44.025 338.5 1.2 59.2 13.4
2002-11-12 09:08:54 51°11.351 2°44.027 338.7 1.2 58.6 13.4
2002-11-12 09:08:59 51°11.352 2°44.03 339.2 1.2 58.5 13.4
2002-11-12 09:09:03 51°11.352 2°44.031 339.3 1.2 55.6 13.4
2002-11-12 09:09:09 51°11.353 2°44.034 339.5 1.2 56.1 13.4
2002-11-12 09:09:14 51°11.354 2°44.036 339.7 1.2 56 13.4
2002-11-12 09:09:19 51°11.355 2°44.039 339.5 1.2 55.1 13.4
2002-11-12 09:09:23 51°11.356 2°44.04 339.3 1.2 55.3 13.4
2002-11-12 09:09:27 51°11.357 2°44.042 339.5 1.2 55.5 13.4
2002-11-12 09:09:33 51°11.358 2°44.044 339.3 1.1 55.7 13.4
2002-11-12 09:09:39 51°11.359 2°44.046 339.3 1.1 54.6 13.4
2002-11-12 09:09:43 51°11.359 2°44.048 339.2 1.1 54.4 13.4
2002-11-12 09:09:49 51°11.361 2°44.05 338.7 1.1 52.6 13.4
2002-11-12 09:09:54 51°11.362 2°44.052 338.3 1.1 50.9 13.4
2002-11-12 09:09:59 51°11.363 2°44.054 338 1.1 49.7 13.4
2002-11-12 09:10:03 51°11.363 2°44.056 337.5 1.2 50 13.4
2002-11-12 09:10:09 51°11.365 2°44.058 337.2 1.2 50.7 13.4
2002-11-12 09:10:14 51°11.366 2°44.06 336.8 1.1 51 13.4
2002-11-12 09:10:19 51°11.367 2°44.062 336.5 1.1 49.4 13.4
2002-11-12 09:10:24 51°11.368 2°44.064 336.2 1.1 48.2 13.4
2002-11-12 09:10:29 51°11.369 2°44.065 335.8 1.1 46.7 13.4
2002-11-12 09:10:33 51°11.37 2°44.067 335.3 1.1 46 13.4
2002-11-12 09:10:39 51°11.371 2°44.069 335 1.1 47.3 13.4
2002-11-12 09:10:43 51°11.372 2°44.07 334.7 1.1 45.6 13.3
2002-11-12 09:10:49 51°11.374 2°44.072 334.2 1.1 44.8 13.3
2002-11-12 09:10:54 51°11.375 2°44.074 334 1.2 43.7 13.4
2002-11-12 09:10:59 51°11.376 2°44.075 333.7 1.1 43.9 13.4
2002-11-12 09:11:03 51°11.377 2°44.077 333.5 1.1 43.6 13.4
2002-11-12 09:11:09 51°11.379 2°44.079 333 1.2 42.2 13.4
2002-11-12 09:11:14 51°11.38 2°44.081 332.8 1.2 40.3 13.4
2002-11-12 09:11:19 51°11.381 2°44.082 332.7 1.2 41.9 13.4
2002-11-12 09:11:23 51°11.382 2°44.084 332.5 1.2 42.4 13.4
2002-11-12 09:11:27 51°11.383 2°44.085 332.5 1.1 41.4 13.4
2002-11-12 09:11:33 51°11.384 2°44.087 332.7 1.2 39.3 13.4
2002-11-12 09:11:39 51°11.385 2°44.089 332.7 1.1 40.9 13.4
2002-11-12 09:11:43 51°11.386 2°44.09 332.8 1.1 41.5 13.4
2002-11-12 09:11:49 51°11.388 2°44.092 333.2 1.2 39.7 13.4
2002-11-12 09:11:54 51°11.389 2°44.093 333.3 1.2 39.3 13.4
2002-11-12 09:11:59 51°11.39 2°44.095 333.8 1.1 40.6 13.4
2002-11-12 09:12:03 51°11.391 2°44.096 334.2 1 43 13.4
2002-11-12 09:12:09 51°11.392 2°44.098 334.5 1 43 13.4
2002-11-12 09:12:14 51°11.393 2°44.1 335 1 43.1 13.4
2002-11-12 09:12:19 51°11.394 2°44.101 335.3 1 43.5 13.4
2002-11-12 09:12:23 51°11.395 2°44.103 335.7 1 41.8 13.4
2002-11-12 09:12:29 51°11.396 2°44.104 336.2 1 41.9 13.4
2002-11-12 09:12:34 51°11.397 2°44.106 336.5 1 40.5 13.4
2002-11-12 09:12:39 51°11.398 2°44.108 336.7 1 40.9 13.4
2002-11-12 09:12:43 51°11.399 2°44.109 336.8 1 42.1 13.4
2002-11-12 09:12:49 51°11.4 2°44.11 337 1 42.4 13.4
2002-11-12 09:12:54 51°11.401 2°44.112 337.2 1 43.5 13.4
2002-11-12 09:12:59 51°11.402 2°44.113 337.3 1 43.5 13.4
2002-11-12 09:13:03 51°11.403 2°44.115 337.7 1 44.6 13.4
2002-11-12 09:13:09 51°11.404 2°44.117 337.7 1 45.2 13.4
2002-11-12 09:13:14 51°11.406 2°44.118 337.8 1 45.5 13.4
2002-11-12 09:13:19 51°11.407 2°44.12 337.8 1 43.4 13.4
2002-11-12 09:13:23 51°11.408 2°44.121 337.7 1 41.7 13.4
2002-11-12 09:13:29 51°11.409 2°44.123 337.7 1 42.7 13.4
2002-11-12 09:13:34 51°11.41 2°44.124 337.3 1 43 13.4
2002-11-12 09:13:39 51°11.411 2°44.126 337.2 1 42.9 13.4
2002-11-12 09:13:43 51°11.412 2°44.127 337.2 1 43.4 13.4
2002-11-12 09:13:49 51°11.413 2°44.129 337.2 1 44.7 13.4
2002-11-12 09:13:54 51°11.414 2°44.13 337.2 1 45.1 13.4
2002-11-12 09:13:59 51°11.415 2°44.132 337.2 1 44.1 13.4
2002-11-12 09:14:03 51°11.416 2°44.133 337.2 1 41 13.4
2002-11-12 09:14:09 51°11.418 2°44.135 336.8 1 40.4 13.4
2002-11-12 09:14:14 51°11.419 2°44.136 336.7 1.1 39.9 13.4
2002-11-12 09:14:19 51°11.42 2°44.138 336.5 1.1 39.5 13.4
2002-11-12 09:14:24 51°11.421 2°44.139 335.8 1.1 37.6 13.4
2002-11-12 09:14:29 51°11.422 2°44.14 335.3 1.1 36.6 13.4
2002-11-12 09:14:33 51°11.424 2°44.142 335 1.1 36.1 13.4
2002-11-12 09:14:39 51°11.425 2°44.143 334.8 1.1 36.4 13.4
2002-11-12 09:14:43 51°11.426 2°44.144 334.5 1.1 36.1 13.4
2002-11-12 09:14:49 51°11.427 2°44.146 334.3 1.1 36.5 13.4
2002-11-12 09:14:54 51°11.429 2°44.147 334.3 1.1 35.9 13.4
2002-11-12 09:14:59 51°11.43 2°44.149 334 1.1 35.2 13.4
2002-11-12 09:15:03 51°11.431 2°44.15 333.7 1.1 35.1 13.4
2002-11-12 09:15:09 51°11.432 2°44.152 333.2 1.1 35 13.4
2002-11-12 09:15:13 51°11.433 2°44.153 332.8 1.1 33.1 13.4
2002-11-12 09:15:19 51°11.435 2°44.154 332.5 1.1 31.7 13.4
2002-11-12 09:15:23 51°11.436 2°44.156 332 1.1 31.8 13.4
2002-11-12 09:15:29 51°11.438 2°44.157 331.8 1.1 31.8 13.4
2002-11-12 09:15:34 51°11.439 2°44.159 331.5 1.1 32.1 13.4
2002-11-12 09:15:39 51°11.44 2°44.16 331.7 1.1 34.5 13.4
2002-11-12 09:15:43 51°11.44 2°44.161 331.7 1.1 36.9 13.4
2002-11-12 09:15:49 51°11.442 2°44.163 331.7 1.1 38.4 13.4
2002-11-12 09:15:54 51°11.444 2°44.165 331.7 1.1 36 13.4
2002-11-12 09:15:59 51°11.446 2°44.166 331.8 1.1 35.1 13.4
2002-11-12 09:16:03 51°11.447 2°44.168 332 1.1 36.2 13.4
2002-11-12 09:16:09 51°11.448 2°44.169 332 1.1 38.4 13.4
2002-11-12 09:16:14 51°11.448 2°44.171 332.2 1.1 40.9 13.4
2002-11-12 09:16:19 51°11.45 2°44.172 332.3 1.1 40.7 13.4
2002-11-12 09:16:23 51°11.451 2°44.173 332.5 1.1 39.1 13.4
2002-11-12 09:16:29 51°11.452 2°44.175 332.3 1.1 38.6 13.4
2002-11-12 09:16:34 51°11.453 2°44.176 332.5 1.1 37.4 13.4
2002-11-12 09:16:39 51°11.454 2°44.177 332.5 1.1 37.5 13.4
2002-11-12 09:16:43 51°11.455 2°44.178 332.5 1.1 35.5 13.4
2002-11-12 09:16:49 51°11.457 2°44.18 332 1.1 35.2 13.4
2002-11-12 09:16:54 51°11.458 2°44.181 332.2 1.1 34.1 13.4
2002-11-12 09:16:59 51°11.46 2°44.183 332.2 1.1 32.8 13.4
2002-11-12 09:17:03 51°11.46 2°44.184 332.2 1.1 33.6 13.4
2002-11-12 09:17:07 51°11.462 2°44.185 332.3 1.1 34.9 13.4
2002-11-12 09:17:14 51°11.463 2°44.187 332.3 1 34.5 13.4
2002-11-12 09:17:19 51°11.464 2°44.188 332.3 1 33.9 13.4
2002-11-12 09:17:23 51°11.466 2°44.189 332.5 1 33.6 13.4
2002-11-12 09:17:29 51°11.467 2°44.191 332.5 1.1 31.7 13.4
2002-11-12 09:17:34 51°11.468 2°44.192 332.8 1.1 32.1 13.4
2002-11-12 09:17:39 51°11.469 2°44.193 333 1.1 32.2 13.4
2002-11-12 09:17:43 51°11.47 2°44.194 333 1 32.8 13.4
2002-11-12 09:17:49 51°11.472 2°44.196 333.2 1 32.9 13.4
2002-11-12 09:17:54 51°11.473 2°44.197 333.2 1 31.5 13.4
2002-11-12 09:17:59 51°11.474 2°44.198 333.2 1 31 13.4
2002-11-12 09:18:03 51°11.476 2°44.2 333.2 1 31.3 13.4
2002-11-12 09:18:09 51°11.478 2°44.202 333.2 1 31.5 13.4
2002-11-12 09:18:13 51°11.478 2°44.203 333.2 1 32.3 13.4
2002-11-12 09:18:18 51°11.48 2°44.204 333 1.1 31.8 13.3
2002-11-12 09:18:23 51°11.481 2°44.205 333 1.1 31 13.4
2002-11-12 09:18:29 51°11.483 2°44.207 332.7 1.1 32.9 13.3
2002-11-12 09:18:34 51°11.484 2°44.209 332.2 1.1 32.9 13.3
2002-11-12 09:18:39 51°11.485 2°44.21 331.5 1.1 34 13.3
2002-11-12 09:18:44 51°11.487 2°44.212 331.2 1.1 33.9 13.3
2002-11-12 09:18:49 51°11.488 2°44.213 330.5 1.2 34.3 13.4
2002-11-12 09:18:54 51°11.489 2°44.214 329.8 1.1 34.2 13.4
2002-11-12 09:18:59 51°11.49 2°44.216 329.5 1.1 34.5 13.4
2002-11-12 09:19:03 51°11.491 2°44.216 329.2 1.1 35.9 13.3
2002-11-12 09:19:09 51°11.493 2°44.218 329.2 1.1 36.6 13.3
2002-11-12 09:19:13 51°11.493 2°44.219 329.2 1.1 37.3 13.4
2002-11-12 09:19:19 51°11.494 2°44.221 329.2 1.1 38.7 13.4
2002-11-12 09:19:23 51°11.495 2°44.222 329.2 1.1 38.7 13.4
2002-11-12 09:19:29 51°11.496 2°44.223 329.3 1.1 38.7 13.4
2002-11-12 09:19:34 51°11.496 2°44.225 329.2 1.1 38.6 13.4
2002-11-12 09:19:39 51°11.497 2°44.227 329 1.2 42.8 13.4
2002-11-12 09:19:43 51°11.498 2°44.23 329.7 1.5 58.9 13.4
2002-11-12 09:19:49 51°11.499 2°44.237 332.7 1.9 69.6 13.4
2002-11-12 09:19:54 51°11.499 2°44.243 337.2 2.5 84 13.4
2002-11-12 09:19:58 51°11.499 2°44.25 343.8 3 91.4 13.4
2002-11-12 09:20:04 51°11.497 2°44.259 350.8 3.7 103.4 13.4
2002-11-12 09:20:09 51°11.494 2°44.268 358.3 4 109.9 13.4
2002-11-12 09:20:13 51°11.491 2°44.275 5.8 4.4 120.6 13.4
2002-11-12 09:20:19 51°11.486 2°44.284 13.3 4.7 126.8 13.3
2002-11-12 09:20:23 51°11.481 2°44.29 20.7 5 136.1 13.3
2002-11-12 09:20:29 51°11.474 2°44.295 27.8 5.1 144.8 13.4
2002-11-12 09:20:34 51°11.467 2°44.299 35.7 5.3 153.5 13.3
2002-11-12 09:20:39 51°11.459 2°44.301 44.7 5.3 162.7 13.3
2002-11-12 09:20:43 51°11.453 2°44.302 53.7 5.4 171.3 13.3
2002-11-12 09:20:47 51°11.447 2°44.3 63 5.5 182 13.3
2002-11-12 09:20:54 51°11.437 2°44.295 72.2 5.7 191.8 13.1
2002-11-12 09:20:58 51°11.431 2°44.29 82 5.8 200.5 13.2
2002-11-12 09:21:04 51°11.422 2°44.279 91 6.3 213.6 13.2
2002-11-12 09:21:09 51°11.415 2°44.266 97.8 6.8 220.5 13.2
2002-11-12 09:21:14 51°11.409 2°44.252 104.5 7.5 230.5 13.2
2002-11-12 09:21:19 51°11.403 2°44.235 110.7 8.1 236 13.2
2002-11-12 09:21:23 51°11.399 2°44.219 116.2 9 242.7 13.2
2002-11-12 09:21:29 51°11.393 2°44.194 120.3 9.6 246.9 13.2
2002-11-12 09:21:34 51°11.388 2°44.171 120.8 10.5 250 13.2
2002-11-12 09:21:39 51°11.382 2°44.147 120.7 11.1 250.1 13.2
2002-11-12 09:21:43 51°11.377 2°44.127 120.2 11.7 250 13.1
2002-11-12 09:21:49 51°11.37 2°44.097 119.7 12.1 249.2 13.1
2002-11-12 09:21:54 51°11.364 2°44.071 119.3 12.3 248.8 13.1
2002-11-12 09:21:59 51°11.357 2°44.046 119.2 12.5 248.1 13.1
2002-11-12 09:22:03 51°11.352 2°44.025 119.2 12.7 247.9 13.1
2002-11-12 09:22:09 51°11.344 2°43.994 119.2 12.8 247.8 13
2002-11-12 09:22:14 51°11.337 2°43.967 119.7 12.9 248.1 13.1
2002-11-12 09:22:19 51°11.331 2°43.94 120 12.9 248.6 13.1
2002-11-12 09:22:23 51°11.325 2°43.919 119.3 13 248.5 13.1
2002-11-12 09:22:29 51°11.317 2°43.887 119.2 13.1 247.9 13.1
2002-11-12 09:22:33 51°11.311 2°43.865 119.2 13.1 247.4 13
2002-11-12 09:22:39 51°11.303 2°43.833 119 13.1 247.4 13
2002-11-12 09:22:44 51°11.296 2°43.806 119.5 13.2 247.6 13.1
2002-11-12 09:22:49 51°11.289 2°43.779 120.2 13.2 248.7 13
2002-11-12 09:22:54 51°11.283 2°43.752 120.7 13.2 249.1 13
2002-11-12 09:22:59 51°11.276 2°43.724 120.7 13.2 249 13
2002-11-12 09:23:03 51°11.271 2°43.703 119.7 13.2 248.8 13
2002-11-12 09:23:09 51°11.262 2°43.67 119.8 13.2 248.1 13
2002-11-12 09:23:14 51°11.255 2°43.643 119.8 13.3 248.1 13